Time;durP1;ratioP1;P1;durP2;ratioP2;P2;SDS_P1;SDS_P2;PMS_P1;PMS_P2;Temp;Humidity;BMP_temperature;BMP_pressure;BME280_temperature;BME280_humidity;BME280_pressure;Samples;Min_cycle;Max_cycle;Signal;HPM_P1;HPM_P2
2021/04/26 00:01:14;;;;;;;1.80;1.17;;;22.30;46.50;;;;;;5073965;28;20178;-84
2021/04/26 00:03:40;;;;;;;1.33;1.00;;;22.30;46.50;;;;;;5091235;28;20174;-84
2021/04/26 00:06:06;;;;;;;1.00;0.80;;;22.30;46.50;;;;;;5073095;28;20194;-84
2021/04/26 00:08:32;;;;;;;2.23;0.90;;;22.30;46.50;;;;;;5090222;28;20190;-83
2021/04/26 00:11:01;;;;;;;1.20;0.90;;;22.30;46.50;;;;;;5073407;28;20489;-84
2021/04/26 00:13:30;;;;;;;1.10;0.90;;;22.30;46.50;;;;;;5073421;28;20447;-83
2021/04/26 00:15:56;;;;;;;1.63;1.00;;;22.30;46.50;;;;;;5091251;28;20415;-83
2021/04/26 00:18:23;;;;;;;1.57;1.10;;;22.30;46.60;;;;;;5073609;28;20420;-83
2021/04/26 00:20:50;;;;;;;1.30;1.10;;;22.30;46.50;;;;;;5073096;28;20170;-83
2021/04/26 00:23:18;;;;;;;1.20;1.10;;;22.30;46.50;;;;;;5090962;28;20413;-84
2021/04/26 00:25:44;;;;;;;1.40;1.00;;;22.20;46.40;;;;;;5091037;28;20420;-84
2021/04/26 00:28:10;;;;;;;1.53;1.33;;;22.20;46.60;;;;;;5072361;28;20480;-84
2021/04/26 00:30:38;;;;;;;1.50;1.10;;;22.20;46.70;;;;;;5072698;28;20174;-84
2021/04/26 00:33:05;;;;;;;1.20;1.07;;;22.20;46.70;;;;;;5090881;28;20177;-84
2021/04/26 00:35:36;;;;;;;1.60;1.27;;;22.20;46.60;;;;;;5073180;28;20414;-83
2021/04/26 00:38:07;;;;;;;1.30;1.00;;;22.30;46.50;;;;;;5074162;28;20412;-83
2021/04/26 00:40:33;;;;;;;3.43;1.00;;;22.20;46.50;;;;;;5089853;28;20539;-83
2021/04/26 00:42:58;;;;;;;1.10;0.80;;;22.30;46.80;;;;;;5090237;28;20405;-82
2021/04/26 00:48:48;;;;;;;1.10;0.90;;;22.20;46.50;;;;;;5090881;28;20193;-84
2021/04/26 00:51:13;;;;;;;1.67;1.13;;;22.20;46.60;;;;;;5072561;28;20508;-84
2021/04/26 00:53:39;;;;;;;1.50;1.10;;;22.20;47.00;;;;;;5071821;28;20417;-84
2021/04/26 00:56:06;;;;;;;1.13;1.03;;;22.20;47.00;;;;;;5089892;28;20666;-83
2021/04/26 00:58:33;;;;;;;1.30;1.20;;;22.20;46.60;;;;;;5071919;28;20235;-84
2021/04/26 01:00:59;;;;;;;1.20;0.93;;;22.20;46.70;;;;;;5072839;28;20428;-83
2021/04/26 01:03:24;;;;;;;2.00;1.10;;;22.20;46.80;;;;;;5071930;28;20432;-83
2021/04/26 01:05:50;;;;;;;1.47;1.27;;;22.20;46.60;;;;;;5072226;28;20197;-83
2021/04/26 01:08:20;;;;;;;1.20;1.00;;;22.20;46.60;;;;;;5072246;28;20274;-83
2021/04/26 01:10:47;;;;;;;1.50;1.10;;;22.20;46.60;;;;;;5072101;28;20451;-83
2021/04/26 01:13:57;;;;;;;1.00;0.90;;;22.20;46.60;;;;;;5065940;28;20424;-83
2021/04/26 01:16:50;;;;;;;1.17;1.00;;;22.20;46.50;;;;;;5074655;28;20405;-84
2021/04/26 01:19:27;;;;;;;2.10;1.10;;;22.20;46.60;;;;;;5065997;28;20416;-83
2021/04/26 01:21:59;;;;;;;1.10;0.87;;;22.20;46.60;;;;;;5092370;28;20965;-83
2021/04/26 01:27:50;;;;;;;1.37;1.10;;;22.20;46.60;;;;;;5090445;28;20396;-83
2021/04/26 01:30:43;;;;;;;1.20;0.90;;;22.10;46.50;;;;;;5090510;28;20408;-84
2021/04/26 01:33:21;;;;;;;1.13;1.00;;;22.10;46.60;;;;;;5075705;28;20401;-83
2021/04/26 01:35:47;;;;;;;1.13;0.90;;;22.20;46.60;;;;;;5090188;28;20377;-84
2021/04/26 01:38:24;;;;;;;1.63;1.30;;;22.10;46.60;;;;;;5074159;28;20448;-84
2021/04/26 01:40:51;;;;;;;1.10;0.93;;;22.10;46.50;;;;;;5070645;28;20413;-83
2021/04/26 01:43:21;;;;;;;1.10;0.90;;;22.10;46.60;;;;;;5066801;28;20432;-83
2021/04/26 01:45:51;;;;;;;1.40;0.90;;;22.10;46.70;;;;;;5087251;28;20409;-83
2021/04/26 01:48:21;;;;;;;1.70;1.17;;;22.10;46.60;;;;;;5085971;28;20448;-83
2021/04/26 01:50:48;;;;;;;1.10;0.90;;;22.10;46.60;;;;;;5086288;28;20411;-83
2021/04/26 01:53:17;;;;;;;1.57;1.00;;;22.10;46.60;;;;;;5087184;28;20405;-83
2021/04/26 01:55:43;;;;;;;1.67;1.17;;;22.10;46.70;;;;;;5090799;28;20412;-84
2021/04/26 01:58:10;;;;;;;1.63;1.10;;;22.10;46.70;;;;;;5074853;28;20412;-83
2021/04/26 02:00:36;;;;;;;1.43;1.00;;;22.10;46.60;;;;;;5088860;28;20409;-84
2021/04/26 02:03:03;;;;;;;1.20;0.90;;;22.10;46.50;;;;;;5073613;28;20421;-83
2021/04/26 02:05:30;;;;;;;1.20;1.10;;;22.20;46.60;;;;;;5091103;28;20433;-83
2021/04/26 02:07:56;;;;;;;1.40;1.10;;;22.10;46.60;;;;;;5070884;28;20468;-83
2021/04/26 02:10:28;;;;;;;1.00;0.90;;;22.20;46.80;;;;;;5070751;28;20409;-83
2021/04/26 02:12:56;;;;;;;1.00;0.90;;;22.10;46.60;;;;;;5071188;28;20416;-83
2021/04/26 02:15:26;;;;;;;1.40;1.10;;;22.10;46.60;;;;;;5089485;28;20971;-83
2021/04/26 02:17:56;;;;;;;1.40;1.00;;;22.20;46.70;;;;;;5089011;28;20393;-84
2021/04/26 02:20:22;;;;;;;1.30;0.90;;;22.10;46.70;;;;;;5071468;28;20408;-84
2021/04/26 02:22:52;;;;;;;2.80;1.10;;;22.10;47.50;;;;;;5070396;28;20413;-83
2021/04/26 02:25:19;;;;;;;1.03;0.80;;;22.10;46.60;;;;;;5088633;28;20193;-84
2021/04/26 02:27:45;;;;;;;1.60;1.00;;;22.10;46.70;;;;;;5070842;28;20485;-83
2021/04/26 02:30:12;;;;;;;1.57;1.30;;;22.10;46.60;;;;;;5069992;28;20430;-84
2021/04/26 02:33:14;;;;;;;1.20;0.87;;;22.10;46.60;;;;;;5071153;28;20492;-84
2021/04/26 02:35:46;;;;;;;1.43;0.90;;;22.20;46.60;;;;;;5071692;28;20416;-84
2021/04/26 02:38:16;;;;;;;1.60;1.10;;;22.10;46.70;;;;;;5071228;28;20890;-83
2021/04/26 02:40:53;;;;;;;1.20;0.90;;;22.10;46.70;;;;;;5091462;28;20436;-83
2021/04/26 02:43:20;;;;;;;1.50;1.00;;;22.10;46.60;;;;;;5072249;28;20408;-83
2021/04/26 02:45:58;;;;;;;1.23;0.90;;;22.10;46.60;;;;;;5089218;28;20476;-84
2021/04/26 02:48:24;;;;;;;1.67;1.10;;;22.10;46.60;;;;;;5073369;28;20483;-83
2021/04/26 02:50:53;;;;;;;1.27;0.80;;;22.10;46.60;;;;;;5071172;28;20442;-84
2021/04/26 02:53:23;;;;;;;1.03;0.90;;;22.10;46.70;;;;;;5055806;28;20419;-83
2021/04/26 02:55:52;;;;;;;1.10;0.80;;;22.10;46.70;;;;;;5072252;28;20413;-83
2021/04/26 02:58:23;;;;;;;1.43;1.20;;;22.10;46.80;;;;;;5070368;28;20435;-83
2021/04/26 03:00:49;;;;;;;1.10;0.90;;;22.10;46.70;;;;;;5070958;28;20415;-84
2021/04/26 03:03:18;;;;;;;1.40;1.00;;;22.10;46.80;;;;;;5070451;28;20791;-84
2021/04/26 03:05:46;;;;;;;1.10;0.80;;;22.00;46.50;;;;;;5070303;28;20256;-84
2021/04/26 03:08:13;;;;;;;1.30;0.90;;;22.10;46.70;;;;;;5070675;28;20448;-84
2021/04/26 03:10:39;;;;;;;1.60;1.23;;;22.10;46.60;;;;;;5088614;28;20420;-84
2021/04/26 03:13:05;;;;;;;1.10;0.90;;;22.10;46.80;;;;;;5072508;28;20507;-83
2021/04/26 03:15:31;;;;;;;1.67;0.87;;;22.00;46.60;;;;;;5069712;28;20408;-83
2021/04/26 03:18:00;;;;;;;1.23;0.97;;;22.10;46.90;;;;;;5071292;28;20427;-83
2021/04/26 03:20:26;;;;;;;0.90;0.80;;;22.10;46.70;;;;;;5073169;28;20418;-83
2021/04/26 03:22:53;;;;;;;1.10;0.90;;;22.00;46.60;;;;;;5070991;28;20420;-84
2021/04/26 03:25:22;;;;;;;1.00;0.80;;;22.00;46.60;;;;;;5089176;28;20405;-84
2021/04/26 03:27:52;;;;;;;1.33;1.20;;;22.10;46.70;;;;;;5072103;28;20417;-84
2021/04/26 03:30:23;;;;;;;1.20;1.00;;;22.00;46.60;;;;;;5070563;28;20411;-84
2021/04/26 03:32:50;;;;;;;1.47;0.90;;;22.10;46.60;;;;;;5070759;28;20389;-84
2021/04/26 03:35:18;;;;;;;1.73;1.30;;;22.00;46.60;;;;;;5089245;28;20415;-84
2021/04/26 03:37:59;;;;;;;1.53;0.90;;;22.00;46.60;;;;;;5056354;28;20417;-84
2021/04/26 03:40:28;;;;;;;1.00;0.90;;;22.10;46.70;;;;;;5088359;28;20392;-84
2021/04/26 03:42:59;;;;;;;1.30;0.90;;;22.00;46.60;;;;;;5092460;28;20445;-84
2021/04/26 03:45:26;;;;;;;1.30;1.00;;;22.10;46.60;;;;;;5076140;28;20718;-84
2021/04/26 03:47:53;;;;;;;1.07;0.90;;;22.00;46.60;;;;;;5092116;28;20456;-84
2021/04/26 03:50:20;;;;;;;2.03;1.50;;;22.00;46.60;;;;;;5076069;28;20412;-84
2021/04/26 03:52:46;;;;;;;1.50;1.20;;;22.00;46.60;;;;;;5074737;28;20822;-84
2021/04/26 03:55:20;;;;;;;1.10;0.90;;;22.00;46.70;;;;;;5091368;28;20436;-84
2021/04/26 03:57:46;;;;;;;1.80;1.20;;;22.00;46.50;;;;;;5073043;28;20170;-84
2021/04/26 04:00:13;;;;;;;3.73;1.00;;;22.00;46.60;;;;;;5073958;28;20421;-84
2021/04/26 04:02:39;;;;;;;1.63;0.90;;;22.00;46.50;;;;;;5090654;28;20482;-84
2021/04/26 04:05:07;;;;;;;2.43;1.60;;;22.00;46.60;;;;;;5074135;28;20440;-84
2021/04/26 04:07:36;;;;;;;2.00;1.20;;;22.00;46.50;;;;;;5072920;28;20420;-84
2021/04/26 04:10:07;;;;;;;1.27;0.90;;;22.00;46.50;;;;;;5073459;28;20491;-84
2021/04/26 04:12:33;;;;;;;1.33;1.23;;;22.00;46.60;;;;;;5092796;28;20794;-84
2021/04/26 04:15:00;;;;;;;1.30;0.93;;;22.00;46.70;;;;;;5072821;28;20424;-84
2021/04/26 04:17:27;;;;;;;1.27;0.80;;;22.00;46.80;;;;;;5073269;28;20416;-84
2021/04/26 04:19:53;;;;;;;1.63;1.20;;;22.00;46.70;;;;;;5072740;28;20413;-83
2021/04/26 04:22:19;;;;;;;1.40;1.10;;;22.00;46.80;;;;;;5073807;28;20427;-84
2021/04/26 04:24:46;;;;;;;1.43;0.90;;;22.00;46.80;;;;;;5076052;28;20456;-83
2021/04/26 04:27:14;;;;;;;1.80;1.27;;;21.90;46.50;;;;;;5073235;28;20408;-83
2021/04/26 04:29:43;;;;;;;1.63;1.30;;;22.00;46.80;;;;;;5072360;28;20804;-84
2021/04/26 04:32:09;;;;;;;1.53;1.10;;;22.00;46.50;;;;;;5071468;28;20425;-83
2021/04/26 04:34:35;;;;;;;1.30;0.90;;;21.90;46.70;;;;;;5072327;28;20438;-83
2021/04/26 04:37:02;;;;;;;1.50;1.00;;;21.90;46.80;;;;;;5089918;28;20171;-83
2021/04/26 04:39:31;;;;;;;1.53;1.07;;;21.90;46.60;;;;;;5071302;28;20507;-83
2021/04/26 04:41:57;;;;;;;1.70;1.00;;;22.00;46.70;;;;;;5090146;28;20524;-83
2021/04/26 04:44:27;;;;;;;2.73;1.10;;;22.00;46.70;;;;;;5073732;28;20424;-83
2021/04/26 04:46:53;;;;;;;1.10;0.90;;;22.00;46.50;;;;;;5075106;28;20166;-84
2021/04/26 04:49:19;;;;;;;1.20;0.80;;;22.00;46.70;;;;;;5073585;28;20544;-83
2021/04/26 04:51:48;;;;;;;1.30;1.10;;;22.00;46.80;;;;;;5090589;28;20466;-83
2021/04/26 04:54:14;;;;;;;1.30;1.00;;;22.00;46.40;;;;;;5092586;28;20166;-84
2021/04/26 04:56:43;;;;;;;1.83;0.90;;;22.00;46.80;;;;;;5091467;28;20415;-83
2021/04/26 04:59:12;;;;;;;1.00;0.90;;;22.00;47.20;;;;;;5073129;28;20416;-82
2021/04/26 05:01:37;;;;;;;1.00;0.87;;;22.10;46.80;;;;;;5094298;28;20456;-83
2021/04/26 05:04:04;;;;;;;1.10;0.90;;;22.30;46.90;;;;;;5071926;28;20440;-83
2021/04/26 05:06:30;;;;;;;1.13;0.90;;;22.10;46.60;;;;;;5070874;28;20194;-83
2021/04/26 05:08:55;;;;;;;1.10;0.83;;;22.10;46.70;;;;;;5088470;28;20459;-83
2021/04/26 05:11:24;;;;;;;1.20;1.10;;;22.10;46.80;;;;;;5072118;28;20170;-84
2021/04/26 05:13:50;;;;;;;1.63;0.90;;;22.10;46.70;;;;;;5072377;28;20186;-84
2021/04/26 05:16:16;;;;;;;1.07;0.93;;;22.10;46.60;;;;;;5072500;28;20413;-84
2021/04/26 05:22:04;;;;;;;1.30;0.90;;;22.20;46.40;;;;;;5089972;28;20231;-85
2021/04/26 05:24:31;;;;;;;2.10;1.00;;;22.20;46.50;;;;;;5071084;28;20404;-84
2021/04/26 05:26:59;;;;;;;1.10;0.87;;;22.20;47.00;;;;;;5089123;28;20412;-84
2021/04/26 05:29:50;;;;;;;3.30;0.90;;;22.20;47.20;;;;;;5074230;28;20460;-82
2021/04/26 05:32:16;;;;;;;1.00;0.70;;;22.30;46.60;;;;;;5088879;28;20500;-83
2021/04/26 05:34:41;;;;;;;1.13;0.90;;;22.20;46.60;;;;;;5088673;28;20886;-84
2021/04/26 05:37:09;;;;;;;1.10;0.80;;;22.30;46.80;;;;;;5071718;28;20195;-84
2021/04/26 05:39:34;;;;;;;1.63;1.00;;;22.30;46.60;;;;;;5071549;28;20238;-84
2021/04/26 05:42:00;;;;;;;2.50;0.90;;;22.30;46.80;;;;;;5069746;28;20474;-84
2021/04/26 05:44:26;;;;;;;1.37;0.90;;;22.30;46.80;;;;;;5070516;28;20172;-84
2021/04/26 05:46:52;;;;;;;1.33;0.80;;;22.30;46.70;;;;;;5070630;28;20416;-84
2021/04/26 05:49:18;;;;;;;1.20;1.00;;;22.30;46.90;;;;;;5069943;28;20554;-84
2021/04/26 05:51:44;;;;;;;1.43;0.90;;;22.40;47.00;;;;;;5069451;28;20419;-84
2021/04/26 05:54:10;;;;;;;1.30;0.90;;;22.30;46.60;;;;;;5069553;28;20235;-84
2021/04/26 05:56:38;;;;;;;1.10;0.80;;;22.20;46.60;;;;;;5087154;28;20216;-85
2021/04/26 05:59:06;;;;;;;1.63;1.10;;;22.40;46.60;;;;;;5063078;28;20178;-84
2021/04/26 06:01:32;;;;;;;1.20;1.00;;;22.30;46.60;;;;;;5072676;28;20412;-84
2021/04/26 06:04:01;;;;;;;1.20;0.80;;;22.40;46.80;;;;;;5089148;28;20416;-86
2021/04/26 06:13:51;;;;;;;;;;;;;;;;;;;;;
2021/04/26 06:44:29;;;;;;;;;;;;;;;;;;;;;
2021/04/26 06:50:34;;;;;;;3.27;0.97;;;22.60;46.70;;;;;;4945399;29;20450;-87
2021/04/26 07:07:24;;;;;;;0.97;0.70;;;22.70;46.80;;;;;;4945708;28;20467;-88
2021/04/26 07:51:45;;;;;;;;;;;;;;;;;;;;;
2021/04/26 08:03:44;;;;;;;1.00;0.83;;;22.90;47.00;;;;;;5051716;28;20532;-87
2021/04/26 08:06:13;;;;;;;1.67;0.90;;;22.90;47.00;;;;;;5050490;28;20480;-87
2021/04/26 08:08:38;;;;;;;1.10;1.00;;;22.90;46.90;;;;;;5032460;28;20964;-87
2021/04/26 08:11:08;;;;;;;1.37;1.07;;;23.00;47.00;;;;;;5049261;28;20429;-87
2021/04/26 08:13:34;;;;;;;1.47;0.90;;;23.00;47.00;;;;;;5050202;28;20434;-87
2021/04/26 08:16:03;;;;;;;1.97;0.80;;;23.00;46.90;;;;;;5031958;28;20744;-87
2021/04/26 08:39:07;;;;;;;1.30;1.00;;;23.00;47.00;;;;;;4934301;29;20499;-86
2021/04/26 09:13:21;;;;;;;0.93;0.70;;;23.10;47.10;;;;;;4853933;29;20468;-87
2021/04/26 09:50:38;;;;;;;;;;;;;;;;;;;;;
2021/04/26 10:14:22;;;;;;;1.13;0.80;;;23.10;47.10;;;;;;4820648;29;20557;-85
2021/04/26 10:17:10;;;;;;;2.37;1.10;;;23.10;47.10;;;;;;4850982;29;20439;-86
2021/04/26 10:19:55;;;;;;;1.00;0.70;;;23.20;47.10;;;;;;4874744;29;20415;-87
2021/04/26 10:22:42;;;;;;;1.77;0.80;;;23.20;47.10;;;;;;4862050;29;20418;-85
2021/04/26 10:58:39;;;;;;;1.10;0.77;;;23.30;47.20;;;;;;5583592;23;20492;-84
2021/04/26 11:01:06;;;;;;;2.80;0.70;;;23.30;47.20;;;;;;4985895;28;20427;-84
2021/04/26 11:03:33;;;;;;;1.10;0.73;;;23.30;47.10;;;;;;4982659;28;20426;-84
2021/04/26 11:06:09;;;;;;;0.90;0.70;;;23.30;47.20;;;;;;5011934;28;20432;-83
2021/04/26 11:08:49;;;;;;;1.30;0.80;;;23.30;47.10;;;;;;4984573;28;20464;-83
2021/04/26 11:11:30;;;;;;;1.03;0.93;;;23.30;47.10;;;;;;4987657;28;20405;-83
2021/04/26 11:13:58;;;;;;;1.90;0.97;;;23.30;47.00;;;;;;4978586;28;20420;-83
2021/04/26 11:16:44;;;;;;;1.10;0.80;;;23.30;47.00;;;;;;4985736;28;20417;-82
2021/04/26 11:19:12;;;;;;;2.20;0.80;;;23.30;47.00;;;;;;4985536;28;20515;-82
2021/04/26 11:21:44;;;;;;;1.20;0.90;;;23.30;47.00;;;;;;4985862;28;20412;-82
2021/04/26 11:24:22;;;;;;;2.37;1.00;;;23.30;47.00;;;;;;4981820;28;20425;-82
2021/04/26 11:27:13;;;;;;;1.30;0.80;;;23.30;47.00;;;;;;4975968;28;20421;-83
2021/04/26 11:29:45;;;;;;;1.03;0.70;;;23.30;47.00;;;;;;4980667;28;20465;-82
2021/04/26 11:32:26;;;;;;;2.40;1.03;;;23.30;47.00;;;;;;4971825;28;20409;-82
2021/04/26 11:38:55;;;;;;;2.33;1.30;;;23.30;47.00;;;;;;4975387;28;20400;-83
2021/04/26 11:41:26;;;;;;;6.20;2.60;;;23.30;47.00;;;;;;4975135;28;20444;-88
2021/04/26 11:43:58;;;;;;;8.83;3.67;;;23.20;47.00;;;;;;4981435;28;20425;-89
2021/04/26 11:46:25;;;;;;;8.70;4.00;;;23.20;47.00;;;;;;4978189;28;20421;-89
2021/04/26 11:49:44;;;;;;;11.60;4.47;;;23.20;47.00;;;;;;4977791;28;20453;-88
2021/04/26 11:52:24;;;;;;;17.77;6.30;;;23.30;47.10;;;;;;4982217;28;20402;-89
2021/04/26 11:55:05;;;;;;;12.40;6.17;;;23.20;47.20;;;;;;4981543;28;20411;-89
2021/04/26 11:58:02;;;;;;;;;;;;;;;;;;;;;
2021/04/26 12:00:30;;;;;;;9.00;5.20;;;23.20;47.20;;;;;;4968087;28;20540;-90
2021/04/26 12:03:09;;;;;;;10.70;5.47;;;23.10;47.10;;;;;;4979174;28;20840;-89
2021/04/26 12:05:35;;;;;;;8.03;5.93;;;23.20;47.20;;;;;;4982692;28;20413;-89
2021/04/26 12:08:00;;;;;;;15.67;6.20;;;23.10;47.10;;;;;;4985884;28;20420;-89
2021/04/26 12:10:43;;;;;;;11.00;6.53;;;23.10;47.10;;;;;;4979054;28;20430;-89
2021/04/26 12:13:09;;;;;;;9.77;6.10;;;23.10;47.10;;;;;;4975287;28;20182;-89
2021/04/26 12:19:05;;;;;;;15.83;7.33;;;23.10;47.10;;;;;;4987765;28;20601;-93
2021/04/26 12:21:45;;;;;;;15.27;6.03;;;22.90;47.10;;;;;;5002909;28;20425;-92
2021/04/26 12:24:14;;;;;;;16.47;7.87;;;23.10;47.20;;;;;;4962374;29;20426;-92
2021/04/26 12:26:54;;;;;;;12.17;6.50;;;23.00;47.20;;;;;;4987350;28;20421;-93
2021/04/26 12:29:50;;;;;;;15.90;8.40;;;23.00;47.20;;;;;;4979565;28;20453;-93
2021/04/26 12:32:28;;;;;;;16.30;8.50;;;23.00;47.20;;;;;;4993745;28;20421;-93
2021/04/26 12:35:06;;;;;;;21.37;9.20;;;23.00;47.20;;;;;;4994368;28;20417;-93
2021/04/26 12:38:16;;;;;;;15.10;9.83;;;23.00;47.20;;;;;;4993770;28;20456;-93
2021/04/26 12:40:50;;;;;;;18.37;9.50;;;23.10;47.30;;;;;;4985164;28;20488;-93
2021/04/26 12:43:21;;;;;;;23.50;9.40;;;23.00;47.20;;;;;;4994309;28;20445;-93
2021/04/26 12:46:16;;;;;;;20.90;10.13;;;23.00;47.20;;;;;;4992476;28;20420;-92
2021/04/26 12:51:55;;;;;;;24.20;11.40;;;23.00;47.30;;;;;;4988310;28;20432;-85
2021/04/26 12:54:24;;;;;;;22.77;11.10;;;23.00;47.30;;;;;;4989655;28;20453;-93
2021/04/26 12:56:58;;;;;;;22.60;10.70;;;22.90;47.30;;;;;;4989737;28;20777;-93
2021/04/26 12:59:43;;;;;;;21.97;11.20;;;22.90;47.20;;;;;;4990194;28;20447;-93
2021/04/26 13:02:10;;;;;;;19.17;10.20;;;22.90;47.20;;;;;;4991785;28;20418;-95
2021/04/26 13:05:04;;;;;;;23.40;11.00;;;22.90;47.30;;;;;;4989187;28;20444;-93
2021/04/26 13:14:46;;;;;;;18.50;10.47;;;22.80;47.20;;;;;;4990505;28;20393;-93
2021/04/26 13:17:19;;;;;;;19.83;10.47;;;22.80;47.20;;;;;;4987447;28;20907;-93
2021/04/26 13:20:53;;;;;;;15.47;9.97;;;22.80;47.30;;;;;;4990590;28;20425;-93
2021/04/26 13:23:27;;;;;;;17.67;9.33;;;22.80;47.30;;;;;;4987333;28;20420;-92
2021/04/26 13:26:09;;;;;;;;;;;;;;;;;;;;;
2021/04/26 13:28:47;;;;;;;15.07;9.43;;;22.70;47.20;;;;;;4934679;29;20459;-92
2021/04/26 13:31:31;;;;;;;15.03;9.63;;;22.80;47.30;;;;;;4919428;29;20416;-92
2021/04/26 13:34:04;;;;;;;20.10;9.60;;;22.80;47.30;;;;;;4917720;29;20451;-93
2021/04/26 13:36:33;;;;;;;12.73;8.07;;;22.80;47.30;;;;;;4918565;29;20454;-93
2021/04/26 13:39:17;;;;;;;12.10;7.80;;;22.80;47.30;;;;;;4917727;29;20439;-92
2021/04/26 13:41:49;;;;;;;16.47;9.03;;;22.80;47.30;;;;;;4918960;29;20423;-92
2021/04/26 13:44:29;;;;;;;15.90;8.03;;;22.80;47.30;;;;;;4917563;29;20435;-93
2021/04/26 13:46:55;;;;;;;12.17;7.37;;;22.80;47.20;;;;;;4916587;29;20444;-93
2021/04/26 13:49:23;;;;;;;14.57;8.50;;;22.80;47.20;;;;;;4919193;29;20559;-93
2021/04/26 13:51:57;;;;;;;16.40;8.70;;;22.80;47.20;;;;;;4901967;29;20420;-88
2021/04/26 13:54:25;;;;;;;16.30;8.90;;;22.70;47.10;;;;;;4912891;29;20428;-88
2021/04/26 13:56:51;;;;;;;15.10;8.50;;;22.80;47.20;;;;;;4914122;29;20517;-87
2021/04/26 13:59:19;;;;;;;14.63;7.60;;;22.80;47.20;;;;;;4909810;29;20447;-88
2021/04/26 14:01:45;;;;;;;14.40;8.50;;;22.80;47.20;;;;;;4909311;29;20265;-88
2021/04/26 14:04:44;;;;;;;16.90;9.60;;;22.80;47.20;;;;;;4912325;29;20451;-83
2021/04/26 14:28:18;;;;;;;;;;;;;;;;;;;;;
2021/04/26 14:38:18;;;;;;;;;;;;;;;;;;;;;
2021/04/26 14:51:05;;;;;;;12.80;7.17;;;23.00;47.10;;;;;;4774315;30;20440;-82
2021/04/26 14:54:31;;;;;;;;;;;;;;;;;;;;;
2021/04/26 15:06:22;;;;;;;11.20;6.73;;;23.10;47.00;;;;;;4910667;29;20457;-82
2021/04/26 15:08:56;;;;;;;8.90;6.07;;;23.00;47.00;;;;;;4928472;29;20467;-83
2021/04/26 15:11:50;;;;;;;12.93;6.40;;;23.20;47.10;;;;;;4898890;29;20424;-82
2021/04/26 15:14:24;;;;;;;13.33;6.80;;;23.10;47.00;;;;;;4951739;28;20409;-84
2021/04/26 15:17:29;;;;;;;11.67;6.50;;;23.10;47.00;;;;;;4988777;28;20440;-84
2021/04/26 16:11:34;;;;;;;;;;;;;;;;;;;;;
2021/04/26 17:27:14;;;;;;;;;;;;;;;;;;;;;
2021/04/26 18:11:24;;;;;;;3.53;2.13;;;22.70;46.10;;;;;;4853615;29;20427;-86
2021/04/26 19:41:13;;;;;;;1.90;1.20;;;22.40;46.60;;;;;;4858324;29;20421;-86
2021/04/26 19:47:56;;;;;;;;;;;;;;;;;;;;;
2021/04/26 22:23:28;;;;;;;;;;;;;;;;;;;;;
